createdAt,value
2023-03-05T00:01:30.141Z,50.36
2023-03-05T00:04:01.142Z,50.39
2023-03-05T00:06:33.816Z,50.88
2023-03-05T00:09:05.307Z,50.96
2023-03-05T00:11:36.427Z,50.86
2023-03-05T00:14:11.135Z,51.02
2023-03-05T00:16:42.577Z,51.20
2023-03-05T00:19:14.807Z,51.08
2023-03-05T00:21:46.394Z,51.10
2023-03-05T00:24:20.544Z,51.23
2023-03-05T00:26:51.294Z,51.29
2023-03-05T00:29:24.196Z,51.37
2023-03-05T00:31:55.128Z,51.13
2023-03-05T00:34:25.899Z,51.40
2023-03-05T00:36:56.730Z,51.43
2023-03-05T00:39:29.097Z,51.58
2023-03-05T00:42:01.351Z,51.55
2023-03-05T00:44:32.608Z,51.50
2023-03-05T00:47:05.006Z,51.63
2023-03-05T00:49:35.940Z,51.58
2023-03-05T00:52:08.727Z,51.72
2023-03-05T00:54:45.094Z,51.97
2023-03-05T00:57:15.774Z,52.07
2023-03-05T00:59:46.700Z,52.33
2023-03-05T01:02:17.655Z,52.52
2023-03-05T01:04:48.789Z,52.54
2023-03-05T01:07:19.637Z,52.53
2023-03-05T01:09:50.374Z,52.51
2023-03-05T01:12:21.262Z,52.61
2023-03-05T01:14:52.308Z,52.86
2023-03-05T01:17:23.865Z,52.53
2023-03-05T01:19:54.768Z,52.52
2023-03-05T01:22:25.916Z,52.62
2023-03-05T01:25:00.768Z,52.75
2023-03-05T01:27:33.175Z,52.98
2023-03-05T01:30:04.998Z,52.67
2023-03-05T01:32:36.033Z,52.86
2023-03-05T01:35:08.812Z,52.84
2023-03-05T01:37:39.601Z,52.93
2023-03-05T01:40:14.270Z,52.86
2023-03-05T01:42:49.282Z,53.39
2023-03-05T01:45:22.450Z,53.18
2023-03-05T01:47:55.690Z,53.27
2023-03-05T01:50:28.663Z,53.29
2023-03-05T01:53:03.675Z,53.67
2023-03-05T01:55:37.362Z,53.69
2023-03-05T01:58:12.940Z,53.73
2023-03-05T02:00:47.860Z,53.78
2023-03-05T02:03:19.613Z,53.70
2023-03-05T02:05:50.756Z,53.89
2023-03-05T02:08:25.295Z,53.98
2023-03-05T02:10:58.418Z,54.45
2023-03-05T02:13:34.389Z,54.11
2023-03-05T02:20:23.614Z,54.32
2023-03-05T02:22:55.391Z,54.57
2023-03-05T02:25:28.787Z,54.27
2023-03-05T02:28:27.389Z,54.59
2023-03-05T02:30:58.647Z,54.45
2023-03-05T02:33:29.856Z,54.36
2023-03-05T02:36:06.833Z,54.61
2023-03-05T02:38:38.193Z,54.91
2023-03-05T02:41:36.875Z,54.75
2023-03-05T02:44:32.306Z,54.86
2023-03-05T02:47:03.074Z,54.93
2023-03-05T02:49:35.743Z,55.27
2023-03-05T02:52:10.622Z,55.23
2023-03-05T03:02:35.344Z,55.22
2023-03-05T03:08:53.001Z,55.49
2023-03-05T03:11:23.818Z,55.39
2023-03-05T03:15:32.472Z,55.55
2023-03-05T03:18:03.227Z,55.55
2023-03-05T03:20:35.056Z,55.75
2023-03-05T03:42:23.067Z,55.36
2023-03-05T03:44:53.934Z,55.26
2023-03-05T03:48:20.893Z,55.33
2023-03-05T03:50:51.662Z,55.47
2023-03-05T03:53:22.478Z,55.15
2023-03-05T03:55:58.574Z,55.37
2023-03-05T03:58:54.284Z,55.42
2023-03-05T04:01:25.271Z,55.36
2023-03-05T04:04:09.004Z,55.75
2023-03-05T04:06:39.921Z,55.82
2023-03-05T04:09:11.217Z,55.92
2023-03-05T04:12:12.191Z,55.92
2023-03-05T04:15:27.833Z,55.56
2023-03-05T04:17:58.578Z,55.73
2023-03-05T04:20:29.328Z,55.69
2023-03-05T04:23:02.913Z,55.75
2023-03-05T04:25:33.597Z,55.78
2023-03-05T04:28:04.339Z,55.98
2023-03-05T04:30:35.101Z,56.00
2023-03-05T04:33:06.249Z,55.98
2023-03-05T04:35:37.065Z,55.61
2023-03-05T04:38:08.050Z,55.89
2023-03-05T04:40:39.115Z,55.96
2023-03-05T04:43:10.275Z,55.78
2023-03-05T04:45:44.251Z,56.06
2023-03-05T04:48:15.020Z,55.95
2023-03-05T04:50:46.198Z,56.27
2023-03-05T04:53:16.894Z,55.92
2023-03-05T04:55:47.593Z,55.97
2023-03-05T04:58:18.375Z,56.02
2023-03-05T05:00:49.116Z,56.26
2023-03-05T05:03:22.250Z,56.11
2023-03-05T05:06:02.005Z,55.88
2023-03-05T05:08:32.747Z,55.80
2023-03-05T05:11:06.789Z,56.02
2023-03-05T05:13:37.753Z,56.00
2023-03-05T05:16:10.311Z,55.96
2023-03-05T05:18:41.114Z,55.79
2023-03-05T05:21:14.495Z,55.87
2023-03-05T05:23:45.471Z,56.08
2023-03-05T05:26:17.066Z,55.69
2023-03-05T05:28:47.791Z,56.03
2023-03-05T05:31:19.729Z,56.20
2023-03-05T05:33:50.521Z,56.13
2023-03-05T05:36:22.538Z,56.13
2023-03-05T05:38:54.556Z,56.08
2023-03-05T05:41:25.325Z,56.27
2023-03-05T05:43:56.010Z,55.85
2023-03-05T05:46:26.748Z,55.88
2023-03-05T05:49:01.196Z,55.97
2023-03-05T05:51:31.971Z,55.93
2023-03-05T05:54:02.714Z,55.96
2023-03-05T05:56:34.028Z,55.78
2023-03-05T05:59:04.768Z,55.65
2023-03-05T06:01:36.560Z,55.47
2023-03-05T06:04:07.405Z,55.58
2023-03-05T06:06:38.323Z,55.95
2023-03-05T06:09:09.073Z,56.55
2023-03-05T06:11:39.850Z,56.70
2023-03-05T06:14:11.048Z,56.68
2023-03-05T06:16:42.722Z,56.31
2023-03-05T06:19:15.104Z,55.63
2023-03-05T06:21:46.467Z,54.95
2023-03-05T06:24:19.370Z,54.29
2023-03-05T06:26:50.560Z,53.65
2023-03-05T06:29:21.285Z,53.10
2023-03-05T06:31:52.055Z,52.04
2023-03-05T06:34:22.804Z,50.65
2023-03-05T06:36:53.600Z,48.91
2023-03-05T06:39:24.344Z,47.15
2023-03-05T06:41:55.035Z,46.26
2023-03-05T06:44:25.901Z,45.69
2023-03-05T06:46:56.661Z,44.96
2023-03-05T06:49:27.467Z,44.92
2023-03-05T06:52:01.480Z,44.95
2023-03-05T06:54:32.315Z,44.89
2023-03-05T06:57:03.065Z,44.61
2023-03-05T06:59:34.393Z,44.46
2023-03-05T07:02:05.178Z,44.57
2023-03-05T07:04:35.989Z,44.83
2023-03-05T07:07:06.760Z,45.09
2023-03-05T07:09:42.894Z,44.92
2023-03-05T07:12:13.881Z,44.79
2023-03-05T07:14:48.115Z,44.97
2023-03-05T07:17:18.988Z,45.16
2023-03-05T07:19:49.711Z,45.21
2023-03-05T07:22:20.954Z,45.25
2023-03-05T07:24:56.118Z,45.36
2023-03-05T07:27:27.078Z,45.54
2023-03-05T07:30:09.140Z,45.33
2023-03-05T07:32:42.913Z,45.63
2023-03-05T07:35:14.045Z,45.42
2023-03-05T07:37:44.821Z,45.46
2023-03-05T07:40:15.979Z,45.62
2023-03-05T07:42:46.886Z,45.42
2023-03-05T07:45:27.912Z,45.06
2023-03-05T07:48:01.286Z,44.99
2023-03-05T07:50:33.448Z,45.01
2023-03-05T07:53:04.737Z,45.23
2023-03-05T07:55:38.056Z,45.12
2023-03-05T07:58:08.835Z,45.10
2023-03-05T08:00:40.831Z,45.32
2023-03-05T08:03:11.740Z,45.41
2023-03-05T08:05:44.305Z,45.45
2023-03-05T08:08:18.910Z,45.60
2023-03-05T08:10:50.293Z,46.12
2023-03-05T08:13:21.409Z,45.79
2023-03-05T08:15:52.708Z,46.00
2023-03-05T08:18:23.514Z,46.62
2023-03-05T08:20:54.609Z,46.66
2023-03-05T08:23:25.692Z,46.67
2023-03-05T08:25:57.574Z,46.87
2023-03-05T08:28:29.644Z,47.07
2023-03-05T08:31:00.677Z,47.28
2023-03-05T08:33:35.323Z,47.31
2023-03-05T08:36:07.386Z,47.44
2023-03-05T08:38:38.350Z,47.35
2023-03-05T08:41:09.467Z,47.53
2023-03-05T08:43:40.610Z,47.76
2023-03-05T08:46:12.978Z,47.92
2023-03-05T08:48:43.871Z,48.13
2023-03-05T08:51:17.277Z,48.25
2023-03-05T08:53:48.964Z,48.41
2023-03-05T08:56:20.136Z,48.66
2023-03-05T08:58:56.596Z,48.54
2023-03-05T09:01:27.984Z,48.79
2023-03-05T09:03:59.405Z,48.77
2023-03-05T09:06:45.534Z,49.06
2023-03-05T09:09:16.383Z,49.04
2023-03-05T09:11:48.840Z,49.22
2023-03-05T09:14:22.320Z,49.09
2023-03-05T09:16:53.284Z,49.03
2023-03-05T09:19:24.210Z,49.23
2023-03-05T09:21:56.941Z,49.23
2023-03-05T09:24:28.180Z,49.75
2023-03-05T09:27:02.725Z,49.48
2023-03-05T09:29:33.976Z,49.83
2023-03-05T09:32:05.760Z,49.97
2023-03-05T09:34:38.136Z,49.90
2023-03-05T09:37:11.000Z,50.03
2023-03-05T09:39:42.742Z,50.05
2023-03-05T09:42:29.816Z,49.92
2023-03-05T09:45:14.840Z,49.98
2023-03-05T09:47:56.935Z,50.20
2023-03-05T09:50:38.738Z,49.85
2023-03-05T09:53:20.268Z,50.03
2023-03-05T09:55:55.773Z,50.49
2023-03-05T09:58:36.665Z,50.49
2023-03-05T10:01:11.534Z,50.39
2023-03-05T10:03:53.123Z,50.51
2023-03-05T10:06:27.552Z,50.42
2023-03-05T10:09:05.174Z,50.52
2023-03-05T10:11:46.079Z,50.69
2023-03-05T10:14:22.853Z,50.27
2023-03-05T10:17:21.113Z,50.38
2023-03-05T10:20:32.502Z,50.57
2023-03-05T10:23:18.129Z,50.41
2023-03-05T10:25:55.425Z,50.48
2023-03-05T10:28:35.730Z,50.68
2023-03-05T10:31:24.905Z,50.92
2023-03-05T10:34:05.997Z,50.76
2023-03-05T10:36:49.245Z,50.60
2023-03-05T10:39:48.033Z,50.57
2023-03-05T10:42:31.013Z,50.46
2023-03-05T10:45:09.714Z,50.90
2023-03-05T10:47:46.894Z,50.72
2023-03-05T10:50:21.551Z,50.86
2023-03-05T10:53:08.718Z,50.98
2023-03-05T10:55:39.648Z,51.02
2023-03-05T10:58:27.510Z,50.91
2023-03-05T11:01:04.272Z,51.08
2023-03-05T11:03:57.594Z,51.24
2023-03-05T11:06:34.055Z,50.99
2023-03-05T11:09:19.982Z,51.46
2023-03-05T11:12:08.628Z,51.02
2023-03-05T11:14:41.357Z,50.94
2023-03-05T11:17:34.986Z,51.29
2023-03-05T11:20:36.696Z,51.20
2023-03-05T11:23:13.184Z,51.29
2023-03-05T11:26:02.921Z,51.12
2023-03-05T11:28:38.947Z,50.82
2023-03-05T11:31:25.318Z,51.39
2023-03-05T11:34:25.510Z,51.44
2023-03-05T11:37:08.491Z,51.32
2023-03-05T11:39:41.514Z,51.54
2023-03-05T11:42:42.250Z,51.69
2023-03-05T11:48:42.827Z,52.15
2023-03-05T11:51:22.523Z,52.62
2023-03-05T11:54:02.313Z,52.51
2023-03-05T11:56:39.347Z,52.65
2023-03-05T11:59:21.336Z,52.92
2023-03-05T12:01:57.094Z,53.35
2023-03-05T12:04:28.850Z,53.08
2023-03-05T12:07:02.829Z,53.68
2023-03-05T12:09:42.213Z,53.58
2023-03-05T12:12:36.155Z,53.77
2023-03-05T12:15:29.545Z,54.07
2023-03-05T12:18:10.370Z,54.39
2023-03-05T12:20:49.911Z,54.42
2023-03-05T12:23:23.057Z,54.54
2023-03-05T12:25:57.894Z,54.67
2023-03-05T12:29:01.452Z,54.91
2023-03-05T12:31:39.489Z,55.25
2023-03-05T12:34:38.273Z,55.24
2023-03-05T12:37:12.837Z,55.27
2023-03-05T12:40:38.460Z,55.30
2023-03-05T12:43:42.409Z,55.81
2023-03-05T12:46:30.153Z,56.00
2023-03-05T12:52:47.468Z,55.72
2023-03-05T12:55:23.767Z,56.01
2023-03-05T12:58:09.764Z,56.48
2023-03-05T13:01:19.983Z,56.50
2023-03-05T13:04:53.724Z,56.66
2023-03-05T13:08:23.653Z,56.94
2023-03-05T13:10:58.327Z,56.93
2023-03-05T13:13:37.464Z,57.00
2023-03-05T13:16:20.131Z,56.94
2023-03-05T13:18:58.704Z,56.64
2023-03-05T13:21:31.546Z,56.83
2023-03-05T13:24:05.128Z,56.91
2023-03-05T13:26:46.420Z,57.03
2023-03-05T13:29:19.427Z,57.29
2023-03-05T13:31:53.185Z,56.92
2023-03-05T13:34:37.661Z,57.03
2023-03-05T13:37:21.329Z,57.22
2023-03-05T13:39:56.588Z,57.10
2023-03-05T13:46:13.157Z,56.97
2023-03-05T13:48:44.144Z,57.14
2023-03-05T13:51:14.979Z,57.19
2023-03-05T13:53:46.242Z,56.77
2023-03-05T13:56:22.792Z,56.88
2023-03-05T13:58:56.642Z,57.08
2023-03-05T14:01:43.891Z,57.03
2023-03-05T14:04:28.646Z,57.03
2023-03-05T14:07:05.944Z,56.87
2023-03-05T14:09:49.640Z,57.22
2023-03-05T14:12:31.401Z,57.20
2023-03-05T14:15:07.041Z,56.84
2023-03-05T14:17:44.627Z,57.28
2023-03-05T14:20:30.502Z,57.30
2023-03-05T14:23:03.245Z,57.18
2023-03-05T14:25:39.056Z,57.53
2023-03-05T14:28:28.094Z,57.55
2023-03-05T14:30:59.993Z,57.56
2023-03-05T14:33:33.741Z,57.59
2023-03-05T14:36:11.327Z,57.58
2023-03-05T14:38:45.568Z,57.85
2023-03-05T14:41:33.102Z,57.77
2023-03-05T14:44:10.418Z,57.80
2023-03-05T14:46:41.794Z,57.92
2023-03-05T14:49:12.600Z,57.86
2023-03-05T14:51:46.959Z,57.89
2023-03-05T14:54:24.437Z,57.90
2023-03-05T14:56:58.187Z,57.76
2023-03-05T14:59:29.535Z,57.80
2023-03-05T15:02:03.498Z,58.12
2023-03-05T15:08:01.969Z,57.81
2023-03-05T15:10:33.239Z,57.96
2023-03-05T15:13:04.695Z,57.77
2023-03-05T15:15:43.289Z,58.00
2023-03-05T15:19:31.202Z,57.78
2023-03-05T15:26:39.191Z,58.01
2023-03-05T15:29:07.253Z,57.95
2023-03-05T15:31:39.839Z,58.02
2023-03-05T15:34:08.038Z,57.92
2023-03-05T15:36:46.488Z,58.12
2023-03-05T15:51:22.786Z,57.62
2023-03-05T15:54:09.622Z,57.51
2023-03-05T15:57:20.152Z,57.51
2023-03-05T16:00:05.510Z,57.25
2023-03-05T16:02:52.255Z,57.51
2023-03-05T16:05:26.495Z,57.51
2023-03-05T16:08:07.816Z,57.65
2023-03-05T16:10:42.962Z,57.65
2023-03-05T16:13:21.578Z,57.86
2023-03-05T16:17:04.057Z,57.96
2023-03-05T16:19:44.182Z,57.93
2023-03-05T16:22:16.886Z,58.25
2023-03-05T16:25:13.867Z,58.25
2023-03-05T16:28:10.518Z,58.42
2023-03-05T16:31:00.517Z,58.25
2023-03-05T16:33:34.253Z,58.44
2023-03-05T16:36:32.718Z,58.53
2023-03-05T16:39:06.604Z,58.63
2023-03-05T16:41:39.123Z,58.70
2023-03-05T16:44:13.973Z,58.82
2023-03-05T16:46:53.249Z,59.03
2023-03-05T16:49:29.796Z,59.02
2023-03-05T16:57:01.896Z,59.24
2023-03-05T16:59:40.861Z,59.06
2023-03-05T17:02:15.474Z,59.20
2023-03-05T17:04:55.999Z,59.38
2023-03-05T17:07:28.776Z,59.50
2023-03-05T17:10:01.239Z,59.67
2023-03-05T17:12:32.440Z,59.54
2023-03-05T17:15:11.840Z,59.51
2023-03-05T17:17:48.623Z,59.40
2023-03-05T17:20:22.223Z,59.50
2023-03-05T17:22:53.434Z,59.58
2023-03-05T17:25:24.651Z,59.60
2023-03-05T17:27:55.675Z,59.43
2023-03-05T17:30:29.533Z,59.55
2023-03-05T17:33:02.755Z,59.65
2023-03-05T17:38:37.737Z,59.93
2023-03-05T17:46:01.345Z,60.06
2023-03-05T17:48:34.104Z,60.32
2023-03-05T17:51:28.830Z,60.27
2023-03-05T17:53:59.764Z,60.40
2023-03-05T17:56:33.093Z,60.59
2023-03-05T17:59:36.707Z,60.57
2023-03-05T18:02:29.654Z,60.78
2023-03-05T18:05:13.437Z,60.65
2023-03-05T18:07:51.023Z,60.98
2023-03-05T18:10:29.384Z,61.08
2023-03-05T18:13:04.413Z,61.17
2023-03-05T18:15:37.651Z,61.13
2023-03-05T18:18:09.393Z,61.20
2023-03-05T18:20:41.854Z,61.38
2023-03-05T18:23:19.841Z,61.31
2023-03-05T18:25:58.494Z,61.32
2023-03-05T18:28:29.504Z,61.32
2023-03-05T18:31:25.403Z,61.60
2023-03-05T18:34:35.552Z,61.49
2023-03-05T18:37:52.863Z,61.80
2023-03-05T18:41:18.180Z,61.58
2023-03-05T18:44:41.401Z,61.87
2023-03-05T18:48:05.307Z,62.04
2023-03-05T18:51:24.618Z,62.09
2023-03-05T19:04:48.958Z,61.26
2023-03-05T19:07:22.072Z,61.12
2023-03-05T19:09:58.864Z,61.08
2023-03-05T19:13:20.140Z,61.34
2023-03-05T19:15:51.469Z,61.57
2023-03-05T19:18:26.729Z,61.46
2023-03-05T19:20:58.797Z,61.73
2023-03-05T19:23:36.903Z,61.64
2023-03-05T19:26:08.381Z,61.76
2023-03-05T19:28:46.456Z,61.83
2023-03-05T19:31:45.212Z,61.85
2023-03-05T19:34:24.670Z,62.10
2023-03-05T19:37:00.453Z,62.36
2023-03-05T19:39:32.517Z,62.06
2023-03-05T19:42:06.464Z,62.30
2023-03-05T19:44:40.819Z,62.31
2023-03-05T19:47:18.644Z,62.59
2023-03-05T19:50:16.259Z,62.54
2023-03-05T19:52:47.182Z,62.53
2023-03-05T19:55:21.813Z,62.61
2023-03-05T19:57:58.888Z,62.32
2023-03-05T20:00:49.178Z,62.58
2023-03-05T20:03:20.528Z,62.68
2023-03-05T20:06:15.529Z,62.68
2023-03-05T20:09:07.567Z,62.76
2023-03-05T20:11:52.393Z,62.80
2023-03-05T20:14:46.697Z,62.99
2023-03-05T20:17:24.323Z,62.95
2023-03-05T20:20:13.741Z,63.01
2023-03-05T20:22:56.709Z,63.13
2023-03-05T20:25:29.067Z,63.27
2023-03-05T20:28:00.094Z,63.16
2023-03-05T20:31:29.124Z,63.11
2023-03-05T20:34:03.189Z,63.29
2023-03-05T20:37:02.447Z,63.32
2023-03-05T20:39:40.166Z,63.38
2023-03-05T20:42:26.546Z,63.32
2023-03-05T20:44:57.732Z,63.33
2023-03-05T20:47:39.848Z,63.67
2023-03-05T20:50:14.515Z,63.52
2023-03-05T20:52:53.210Z,63.30
2023-03-05T20:55:28.581Z,63.58
2023-03-05T20:58:00.224Z,63.47
2023-03-05T21:00:55.626Z,63.48
2023-03-05T21:03:26.750Z,63.46
2023-03-05T21:06:45.385Z,63.59
2023-03-05T21:10:33.381Z,63.67
2023-03-05T21:13:11.438Z,63.68
2023-03-05T21:15:42.749Z,63.36
2023-03-05T21:18:14.185Z,63.50
2023-03-05T21:23:51.155Z,63.37
2023-03-05T21:26:24.944Z,63.71
2023-03-05T21:28:55.934Z,63.44
2023-03-05T21:31:39.403Z,63.63
2023-03-05T21:38:36.492Z,63.56
2023-03-05T21:41:27.593Z,63.13
2023-03-05T21:47:44.928Z,63.05
2023-03-05T21:50:17.456Z,63.05
2023-03-05T21:52:48.523Z,63.01
2023-03-05T21:55:24.448Z,63.27
2023-03-05T21:58:22.817Z,63.07
2023-03-05T22:01:52.556Z,63.20
2023-03-05T22:08:42.989Z,63.30
2023-03-05T22:11:19.418Z,63.71
2023-03-05T22:17:24.099Z,63.28
2023-03-05T22:21:27.453Z,63.36
2023-03-05T22:29:05.947Z,63.57
2023-03-05T22:31:38.866Z,63.53
2023-03-05T22:34:09.722Z,63.64
2023-03-05T22:36:40.871Z,63.47
2023-03-05T22:39:11.717Z,63.44
2023-03-05T22:41:44.474Z,63.38
2023-03-05T22:44:15.252Z,63.26
2023-03-05T22:46:46.221Z,63.32
2023-03-05T22:49:17.043Z,63.32
2023-03-05T22:51:47.854Z,63.41
2023-03-05T22:54:18.681Z,63.28
2023-03-05T22:56:49.670Z,63.10
2023-03-05T22:59:20.613Z,63.18
2023-03-05T23:01:51.464Z,63.39
2023-03-05T23:04:38.946Z,63.37
2023-03-05T23:07:10.201Z,63.36
2023-03-05T23:09:41.036Z,63.41
2023-03-05T23:12:12.871Z,63.17
2023-03-05T23:14:43.684Z,63.15
2023-03-05T23:17:14.553Z,63.51
2023-03-05T23:19:45.479Z,63.44
2023-03-05T23:22:21.086Z,63.38
2023-03-05T23:24:52.484Z,63.41
2023-03-05T23:27:23.453Z,63.48
2023-03-05T23:30:09.137Z,63.54
2023-03-05T23:32:42.762Z,63.54
2023-03-05T23:35:15.080Z,63.74
2023-03-05T23:42:18.235Z,63.64
2023-03-05T23:49:27.759Z,63.86
2023-03-05T23:51:58.624Z,64.12
2023-03-05T23:54:29.611Z,63.87
2023-03-05T23:57:00.520Z,63.90
2023-03-05T23:59:31.365Z,63.72
